createdAt,value
2023-04-01T00:01:33.659Z,4.43
2023-04-01T00:04:02.993Z,4.13
2023-04-01T00:06:30.741Z,4.28
2023-04-01T00:08:57.517Z,4.43
2023-04-01T00:11:24.590Z,3.90
2023-04-01T00:13:51.346Z,4.47
2023-04-01T00:16:22.396Z,3.83
2023-04-01T00:18:50.454Z,4.28
2023-04-01T00:21:17.990Z,3.55
2023-04-01T00:23:44.952Z,3.20
2023-04-01T00:26:13.439Z,3.30
2023-04-01T00:28:41.101Z,3.42
2023-04-01T00:31:08.994Z,2.70
2023-04-01T00:33:36.697Z,2.92
2023-04-01T00:36:20.411Z,2.70
2023-04-01T00:38:47.870Z,3.20
2023-04-01T00:41:16.269Z,3.10
2023-04-01T00:43:44.089Z,2.85
2023-04-01T00:46:11.230Z,3.35
2023-04-01T00:48:40.315Z,3.13
2023-04-01T00:51:12.991Z,3.35
2023-04-01T00:53:42.208Z,2.38
2023-04-01T00:56:33.808Z,2.63
2023-04-01T00:59:06.770Z,3.38
2023-04-01T01:01:33.865Z,3.30
2023-04-01T01:04:01.176Z,3.70
2023-04-01T01:06:40.024Z,3.35
2023-04-01T01:09:34.083Z,3.55
2023-04-01T01:12:27.221Z,3.50
2023-04-01T01:15:18.747Z,3.20
2023-04-01T01:17:48.882Z,3.22
2023-04-01T01:20:39.135Z,3.80
2023-04-01T01:23:30.866Z,3.90
2023-04-01T01:26:45.470Z,3.35
2023-04-01T01:29:12.540Z,3.50
2023-04-01T01:31:42.195Z,2.80
2023-04-01T01:34:21.235Z,3.17
2023-04-01T01:36:49.887Z,4.05
2023-04-01T01:39:16.969Z,3.40
2023-04-01T01:41:43.752Z,4.00
2023-04-01T01:44:12.141Z,4.68
2023-04-01T01:46:39.232Z,4.03
2023-04-01T01:49:06.320Z,4.72
2023-04-01T01:51:33.112Z,3.85
2023-04-01T01:54:00.267Z,4.03
2023-04-01T01:56:28.217Z,5.13
2023-04-01T01:58:57.829Z,4.32
2023-04-01T02:01:26.879Z,4.45
2023-04-01T02:03:54.083Z,4.47
2023-04-01T02:06:22.978Z,3.92
2023-04-01T02:09:00.496Z,3.85
2023-04-01T02:11:30.148Z,4.38
2023-04-01T02:14:27.679Z,4.82
2023-04-01T02:17:08.623Z,5.07
2023-04-01T02:19:39.358Z,4.82
2023-04-01T02:22:09.200Z,5.68
2023-04-01T02:24:36.422Z,5.20
2023-04-01T02:27:03.249Z,4.75
2023-04-01T02:29:30.404Z,5.32
2023-04-01T02:31:57.234Z,5.00
2023-04-01T02:34:24.501Z,5.55
2023-04-01T02:36:51.611Z,4.68
2023-04-01T02:39:18.826Z,5.00
2023-04-01T02:41:45.835Z,5.10
2023-04-01T02:44:13.901Z,5.57
2023-04-01T02:46:40.888Z,5.00
2023-04-01T02:49:07.965Z,4.93
2023-04-01T02:51:34.850Z,4.88
2023-04-01T02:54:01.986Z,5.78
2023-04-01T02:56:28.799Z,5.38
2023-04-01T02:58:56.002Z,5.35
2023-04-01T03:01:22.879Z,5.88
2023-04-01T03:03:50.487Z,5.70
2023-04-01T03:06:17.345Z,5.78
2023-04-01T03:08:44.706Z,5.28
2023-04-01T03:11:11.943Z,5.47
2023-04-01T03:13:39.112Z,5.95
2023-04-01T03:16:06.366Z,5.90
2023-04-01T03:18:33.506Z,6.03
2023-04-01T03:21:14.218Z,6.68
2023-04-01T03:23:41.382Z,6.85
2023-04-01T03:26:08.092Z,7.50
2023-04-01T03:28:35.347Z,7.15
2023-04-01T03:31:02.318Z,6.63
2023-04-01T03:33:29.519Z,6.55
2023-04-01T03:35:56.473Z,6.38
2023-04-01T03:38:23.538Z,5.97
2023-04-01T03:40:50.451Z,6.03
2023-04-01T03:43:17.788Z,5.68
2023-04-01T03:45:48.480Z,5.57
2023-04-01T03:48:15.988Z,6.57
2023-04-01T03:50:42.789Z,6.32
2023-04-01T03:53:10.097Z,6.20
2023-04-01T03:55:37.241Z,6.03
2023-04-01T03:58:05.576Z,5.93
2023-04-01T04:00:32.481Z,6.18
2023-04-01T04:02:59.808Z,5.72
2023-04-01T04:05:26.945Z,5.93
2023-04-01T04:07:54.153Z,6.53
2023-04-01T04:10:21.084Z,6.35
2023-04-01T04:12:48.122Z,5.72
2023-04-01T04:15:14.928Z,5.60
2023-04-01T04:17:42.325Z,5.38
2023-04-01T04:20:09.794Z,7.22
2023-04-01T04:22:36.943Z,6.43
2023-04-01T04:25:03.901Z,7.32
2023-04-01T04:27:31.076Z,6.43
2023-04-01T04:29:57.837Z,6.93
2023-04-01T04:32:24.953Z,6.80
2023-04-01T04:34:51.720Z,6.68
2023-04-01T04:37:18.805Z,5.90
2023-04-01T04:39:45.545Z,6.88
2023-04-01T04:42:12.602Z,6.57
2023-04-01T04:44:40.409Z,6.95
2023-04-01T04:47:07.628Z,7.10
2023-04-01T04:49:34.584Z,6.97
2023-04-01T04:52:01.650Z,7.45
2023-04-01T04:54:28.371Z,7.70
2023-04-01T04:56:55.448Z,7.50
2023-04-01T04:59:22.288Z,6.95
2023-04-01T05:01:49.453Z,6.82
2023-04-01T05:04:16.325Z,8.00
2023-04-01T05:06:44.003Z,6.15
2023-04-01T05:09:10.857Z,6.88
2023-04-01T05:11:37.921Z,6.50
2023-04-01T05:14:04.680Z,7.45
2023-04-01T05:16:32.568Z,6.43
2023-04-01T05:18:59.360Z,7.85
2023-04-01T05:21:26.535Z,7.20
2023-04-01T05:23:53.315Z,6.55
2023-04-01T05:26:20.410Z,6.40
2023-04-01T05:28:47.139Z,7.20
2023-04-01T05:31:14.372Z,5.80
2023-04-01T05:33:41.110Z,6.50
2023-04-01T05:36:17.316Z,6.78
2023-04-01T05:38:44.764Z,7.18
2023-04-01T05:41:11.873Z,6.32
2023-04-01T05:43:38.954Z,7.32
2023-04-01T05:46:06.086Z,6.80
2023-04-01T05:48:34.316Z,6.88
2023-04-01T05:51:01.919Z,6.35
2023-04-01T05:53:28.692Z,7.15
2023-04-01T05:55:55.800Z,6.95
2023-04-01T05:58:22.582Z,6.78
2023-04-01T06:00:59.057Z,7.22
2023-04-01T06:03:32.932Z,6.97
2023-04-01T06:06:02.098Z,7.28
2023-04-01T06:08:29.205Z,6.78
2023-04-01T06:11:19.350Z,6.50
2023-04-01T06:14:01.686Z,6.65
2023-04-01T06:17:13.584Z,6.00
2023-04-01T06:19:54.685Z,7.90
2023-04-01T06:22:48.900Z,7.05
2023-04-01T06:25:44.816Z,6.63
2023-04-01T06:28:35.887Z,7.10
2023-04-01T06:31:08.862Z,6.85
2023-04-01T06:33:43.648Z,6.95
2023-04-01T06:36:21.058Z,6.53
2023-04-01T06:39:26.406Z,6.68
2023-04-01T06:42:14.074Z,7.68
2023-04-01T06:45:04.424Z,7.50
2023-04-01T06:47:49.418Z,6.85
2023-04-01T06:50:34.652Z,6.82
2023-04-01T06:53:07.453Z,7.40
2023-04-01T06:55:53.046Z,7.88
2023-04-01T06:58:24.811Z,7.55
2023-04-01T07:00:57.736Z,7.28
2023-04-01T07:03:30.466Z,6.82
2023-04-01T07:06:09.572Z,7.28
2023-04-01T07:08:37.860Z,7.05
2023-04-01T07:11:06.411Z,6.80
2023-04-01T07:13:42.080Z,6.65
2023-04-01T07:16:18.268Z,7.20
2023-04-01T07:18:51.596Z,6.88
2023-04-01T07:21:36.785Z,7.00
2023-04-01T07:24:10.230Z,6.20
2023-04-01T07:26:37.332Z,6.28
2023-04-01T07:29:07.221Z,6.78
2023-04-01T07:31:40.558Z,6.90
2023-04-01T07:34:35.398Z,7.32
2023-04-01T07:37:24.597Z,8.63
2023-04-01T07:40:07.586Z,9.93
2023-04-01T07:42:50.170Z,9.05
2023-04-01T07:45:23.500Z,11.45
2023-04-01T07:47:53.600Z,13.55
2023-04-01T07:50:43.050Z,9.50
2023-04-01T07:53:19.232Z,8.95
2023-04-01T07:56:06.483Z,8.93
2023-04-01T07:58:45.716Z,7.20
2023-04-01T08:01:21.758Z,8.05
2023-04-01T08:03:59.326Z,7.93
2023-04-01T08:06:37.728Z,6.97
2023-04-01T08:09:20.457Z,6.80
2023-04-01T08:15:08.893Z,6.10
2023-04-01T08:18:06.721Z,6.53
2023-04-01T08:21:11.486Z,5.68
2023-04-01T08:23:39.588Z,5.55
2023-04-01T08:26:15.010Z,6.30
2023-04-01T08:28:52.898Z,5.35
2023-04-01T08:31:21.245Z,7.25
2023-04-01T08:33:48.304Z,6.45
2023-04-01T08:36:22.150Z,6.53
2023-04-01T08:39:11.802Z,7.35
2023-04-01T08:41:57.197Z,6.03
2023-04-01T08:44:43.185Z,5.57
2023-04-01T08:47:32.444Z,5.13
2023-04-01T08:50:20.894Z,5.28
2023-04-01T08:52:54.044Z,5.78
2023-04-01T08:55:26.007Z,5.78
2023-04-01T08:58:30.910Z,7.07
2023-04-01T09:01:06.606Z,6.55
2023-04-01T09:03:45.953Z,5.32
2023-04-01T09:06:41.935Z,4.60
2023-04-01T09:12:16.419Z,4.20
2023-04-01T09:14:52.677Z,3.63
2023-04-01T09:17:28.280Z,3.60
2023-04-01T09:20:01.590Z,2.65
2023-04-01T09:22:48.621Z,2.75
2023-04-01T09:25:47.662Z,2.55
2023-04-01T09:28:18.785Z,2.60
2023-04-01T09:30:59.304Z,2.72
2023-04-01T09:33:47.414Z,2.92
2023-04-01T09:36:49.026Z,2.50
2023-04-01T09:39:24.651Z,3.03
2023-04-01T09:42:11.951Z,2.90
2023-04-01T09:44:42.978Z,2.85
2023-04-01T09:47:28.504Z,3.55
2023-04-01T09:50:27.455Z,3.10
2023-04-01T09:53:29.901Z,2.92
2023-04-01T09:56:21.122Z,2.92
2023-04-01T09:59:29.720Z,2.60
2023-04-01T10:02:15.389Z,2.50
2023-04-01T10:04:50.589Z,2.55
2023-04-01T10:07:29.720Z,2.40
2023-04-01T10:10:20.408Z,2.38
2023-04-01T10:13:15.492Z,2.42
2023-04-01T10:15:42.584Z,2.25
2023-04-01T10:18:56.987Z,2.50
2023-04-01T10:21:40.005Z,2.33
2023-04-01T10:24:31.635Z,2.42
2023-04-01T10:27:14.977Z,2.30
2023-04-01T10:29:44.717Z,2.30
2023-04-01T10:32:49.651Z,2.13
2023-04-01T10:35:38.273Z,2.20
2023-04-01T10:38:20.715Z,1.90
2023-04-01T10:41:07.404Z,2.15
2023-04-01T10:43:43.592Z,2.40
2023-04-01T10:46:16.469Z,2.10
2023-04-01T10:48:56.501Z,1.63
2023-04-01T10:51:49.797Z,1.90
2023-04-01T10:54:47.762Z,1.58
2023-04-01T10:57:33.166Z,1.67
2023-04-01T11:00:00.310Z,1.45
2023-04-01T11:02:58.281Z,1.52
2023-04-01T11:05:52.782Z,2.22
2023-04-01T11:08:40.633Z,2.10
2023-04-01T11:11:46.261Z,2.63
2023-04-01T11:14:42.446Z,1.55
2023-04-01T11:17:31.593Z,1.98
2023-04-01T11:20:04.694Z,1.95
2023-04-01T11:22:59.654Z,1.50
2023-04-01T11:25:31.433Z,1.60
2023-04-01T11:28:25.094Z,1.35
2023-04-01T11:31:13.062Z,1.40
2023-04-01T11:34:16.645Z,1.77
2023-04-01T11:37:03.702Z,1.48
2023-04-01T11:40:07.168Z,1.90
2023-04-01T11:43:01.525Z,1.30
2023-04-01T11:45:41.382Z,1.30
2023-04-01T11:48:23.221Z,1.90
2023-04-01T11:51:11.589Z,1.20
2023-04-01T11:54:09.103Z,1.52
2023-04-01T11:56:57.452Z,1.58
2023-04-01T11:59:46.030Z,1.95
2023-04-01T12:02:33.374Z,2.17
2023-04-01T12:05:09.526Z,2.53
2023-04-01T12:07:54.606Z,3.10
2023-04-01T12:10:33.749Z,3.10
2023-04-01T12:13:20.080Z,2.72
2023-04-01T12:16:05.987Z,3.30
2023-04-01T12:19:11.646Z,2.38
2023-04-01T12:21:53.516Z,2.25
2023-04-01T12:24:39.566Z,2.40
2023-04-01T12:27:24.594Z,2.17
2023-04-01T12:30:00.846Z,2.25
2023-04-01T12:32:42.849Z,2.10
2023-04-01T12:35:19.546Z,2.22
2023-04-01T12:38:12.200Z,2.05
2023-04-01T12:40:58.137Z,2.25
2023-04-01T12:46:09.793Z,2.20
2023-04-01T12:48:43.897Z,2.22
2023-04-01T12:51:32.782Z,2.63
2023-04-01T12:54:10.112Z,2.67
2023-04-01T12:56:52.336Z,3.97
2023-04-01T12:59:38.568Z,4.47
2023-04-01T13:02:24.273Z,2.85
2023-04-01T13:04:56.994Z,3.03
2023-04-01T13:07:35.734Z,3.42
2023-04-01T13:10:44.114Z,2.55
2023-04-01T13:13:53.900Z,2.38
2023-04-01T13:16:25.507Z,2.97
2023-04-01T13:19:01.730Z,1.85
2023-04-01T13:21:44.812Z,2.13
2023-04-01T13:24:44.581Z,2.28
2023-04-01T13:27:20.398Z,2.78
2023-04-01T13:30:31.953Z,2.05
2023-04-01T13:33:36.022Z,2.13
2023-04-01T13:36:19.434Z,2.33
2023-04-01T13:38:46.430Z,2.72
2023-04-01T13:41:41.725Z,2.58
2023-04-01T13:44:32.189Z,1.95
2023-04-01T13:47:24.025Z,2.45
2023-04-01T13:50:13.905Z,2.80
2023-04-01T13:53:03.140Z,2.63
2023-04-01T13:55:48.358Z,2.58
2023-04-01T13:58:48.038Z,3.00
2023-04-01T14:01:32.369Z,2.55
2023-04-01T14:04:21.191Z,2.50
2023-04-01T14:07:01.966Z,2.42
2023-04-01T14:09:50.388Z,3.92
2023-04-01T14:12:35.663Z,3.00
2023-04-01T14:15:35.335Z,2.42
2023-04-01T14:18:25.023Z,2.70
2023-04-01T14:21:21.394Z,3.22
2023-04-01T14:27:03.479Z,3.03
2023-04-01T14:29:36.645Z,2.85
2023-04-01T14:32:34.459Z,2.92
2023-04-01T14:35:15.829Z,3.42
2023-04-01T14:38:01.263Z,3.60
2023-04-01T14:40:30.125Z,3.53
2023-04-01T14:43:09.009Z,3.55
2023-04-01T14:46:12.807Z,3.42
2023-04-01T14:48:49.526Z,4.13
2023-04-01T14:51:18.002Z,5.82
2023-04-01T14:54:04.301Z,7.10
2023-04-01T14:56:52.248Z,6.38
2023-04-01T14:59:22.478Z,5.97
2023-04-01T15:02:08.175Z,5.85
2023-04-01T15:04:39.729Z,5.45
2023-04-01T15:07:06.688Z,5.20
2023-04-01T15:09:55.116Z,4.90
2023-04-01T15:12:31.356Z,5.00
2023-04-01T15:15:19.756Z,4.70
2023-04-01T15:18:05.285Z,4.50
2023-04-01T15:20:32.379Z,4.40
2023-04-01T15:23:14.578Z,4.68
2023-04-01T15:25:44.760Z,5.00
2023-04-01T15:28:33.522Z,4.63
2023-04-01T15:31:15.613Z,4.30
2023-04-01T15:34:08.412Z,4.70
2023-04-01T15:37:03.521Z,5.13
2023-04-01T15:39:36.365Z,5.38
2023-04-01T15:42:22.062Z,5.10
2023-04-01T15:45:07.322Z,5.10
2023-04-01T15:48:00.186Z,5.35
2023-04-01T15:50:55.525Z,6.30
2023-04-01T15:53:25.655Z,6.72
2023-04-01T15:56:00.558Z,6.30
2023-04-01T15:58:52.536Z,6.30
2023-04-01T16:01:35.664Z,6.30
2023-04-01T16:04:14.954Z,5.82
2023-04-01T16:06:54.112Z,5.82
2023-04-01T16:09:46.319Z,6.40
2023-04-01T16:12:13.149Z,6.30
2023-04-01T16:15:04.382Z,6.25
2023-04-01T16:17:39.967Z,5.93
2023-04-01T16:20:19.085Z,5.43
2023-04-01T16:23:03.764Z,6.00
2023-04-01T16:25:37.225Z,6.95
2023-04-01T16:28:13.076Z,6.65
2023-04-01T16:30:45.350Z,6.93
2023-04-01T16:33:29.063Z,6.60
2023-04-01T16:36:35.430Z,6.57
2023-04-01T16:39:17.122Z,6.47
2023-04-01T16:41:50.983Z,6.50
2023-04-01T16:44:25.467Z,6.95
2023-04-01T16:47:08.830Z,5.53
2023-04-01T16:49:45.516Z,6.30
2023-04-01T16:52:12.855Z,6.25
2023-04-01T16:55:01.395Z,6.38
2023-04-01T16:57:29.668Z,6.00
2023-04-01T17:00:15.215Z,6.13
2023-04-01T17:02:52.443Z,7.15
2023-04-01T17:05:19.515Z,7.43
2023-04-01T17:07:55.921Z,7.15
2023-04-01T17:10:41.374Z,7.00
2023-04-01T17:13:17.796Z,7.07
2023-04-01T17:15:53.831Z,8.15
2023-04-01T17:18:39.359Z,8.48
2023-04-01T17:21:08.885Z,9.50
2023-04-01T17:24:11.105Z,9.68
2023-04-01T17:26:39.428Z,11.50
2023-04-01T17:29:16.570Z,11.50
2023-04-01T17:32:12.726Z,14.48
2023-04-01T17:34:39.832Z,16.38
2023-04-01T17:37:10.851Z,18.17
2023-04-01T17:39:56.435Z,17.90
2023-04-01T17:42:24.239Z,20.90
2023-04-01T17:45:20.494Z,18.90
2023-04-01T17:48:04.694Z,18.98
2023-04-01T17:50:37.368Z,18.70
2023-04-01T17:53:14.383Z,17.52
2023-04-01T17:56:00.089Z,18.30
2023-04-01T17:58:30.997Z,17.30
2023-04-01T18:00:59.698Z,17.00
2023-04-01T18:03:45.816Z,15.70
2023-04-01T18:06:21.098Z,16.33
2023-04-01T18:09:02.926Z,16.63
2023-04-01T18:12:06.201Z,16.55
2023-04-01T18:15:07.461Z,15.13
2023-04-01T18:18:02.351Z,15.13
2023-04-01T18:20:38.172Z,15.05
2023-04-01T18:23:28.248Z,14.65
2023-04-01T18:25:56.734Z,14.77
2023-04-01T18:28:39.717Z,14.60
2023-04-01T18:31:20.462Z,14.00
2023-04-01T18:33:53.603Z,12.55
2023-04-01T18:36:26.139Z,12.63
2023-04-01T18:39:41.724Z,13.18
2023-04-01T18:42:26.539Z,14.55
2023-04-01T18:44:57.266Z,14.48
2023-04-01T18:47:51.712Z,14.32
2023-04-01T18:50:38.930Z,13.63
2023-04-01T18:53:43.893Z,14.77
2023-04-01T18:56:12.302Z,15.30
2023-04-01T18:58:51.714Z,15.50
2023-04-01T19:01:41.326Z,16.02
2023-04-01T19:04:31.853Z,15.65
2023-04-01T19:07:01.526Z,15.70
2023-04-01T19:09:29.328Z,15.55
2023-04-01T19:12:08.794Z,15.85
2023-04-01T19:14:47.787Z,17.05
2023-04-01T19:18:08.807Z,15.88
2023-04-01T19:20:38.505Z,15.70
2023-04-01T19:23:27.344Z,15.57
2023-04-01T19:25:59.634Z,16.90
2023-04-01T19:28:41.522Z,16.23
2023-04-01T19:31:41.628Z,15.98
2023-04-01T19:34:39.899Z,15.40
2023-04-01T19:37:12.934Z,15.23
2023-04-01T19:40:17.787Z,15.95
2023-04-01T19:42:50.438Z,15.88
2023-04-01T19:45:31.447Z,15.68
2023-04-01T19:48:39.458Z,15.88
2023-04-01T19:51:06.784Z,15.68
2023-04-01T19:54:00.736Z,14.55
2023-04-01T19:56:38.800Z,15.50
2023-04-01T19:59:20.080Z,16.58
2023-04-01T20:01:59.278Z,15.10
2023-04-01T20:04:57.299Z,14.98
2023-04-01T20:07:38.872Z,15.15
2023-04-01T20:10:15.953Z,14.65
2023-04-01T20:13:20.443Z,14.13
2023-04-01T20:16:09.049Z,15.05
2023-04-01T20:18:48.330Z,14.93
2023-04-01T20:21:30.307Z,13.88
2023-04-01T20:24:02.921Z,14.70
2023-04-01T20:26:37.700Z,13.63
2023-04-01T20:29:23.162Z,14.65
2023-04-01T20:32:05.169Z,14.25
2023-04-01T20:34:52.161Z,14.60
2023-04-01T20:37:45.022Z,13.60
2023-04-01T20:40:42.094Z,13.98
2023-04-01T20:43:18.676Z,13.80
2023-04-01T20:46:00.753Z,12.85
2023-04-01T20:48:55.198Z,13.90
2023-04-01T20:51:44.495Z,13.93
2023-04-01T20:54:49.111Z,15.10
2023-04-01T20:57:33.303Z,13.77
2023-04-01T21:00:35.530Z,14.82
2023-04-01T21:03:13.506Z,12.95
2023-04-01T21:05:49.514Z,13.77
2023-04-01T21:08:53.059Z,14.50
2023-04-01T21:11:19.885Z,14.63
2023-04-01T21:13:53.135Z,14.80
2023-04-01T21:16:41.856Z,15.15
2023-04-01T21:19:27.888Z,14.35
2023-04-01T21:25:19.343Z,13.98
2023-04-01T21:27:58.951Z,15.95
2023-04-01T21:30:29.206Z,14.73
2023-04-01T21:33:45.784Z,16.00
2023-04-01T21:36:20.574Z,14.45
2023-04-01T21:39:44.773Z,14.80
2023-04-01T21:42:14.470Z,15.50
2023-04-01T21:44:47.369Z,16.67
2023-04-01T21:47:29.785Z,16.77
2023-04-01T21:50:21.244Z,16.23
2023-04-01T21:53:21.078Z,16.40
2023-04-01T21:56:23.562Z,17.10
2023-04-01T21:59:09.000Z,17.42
2023-04-01T22:01:49.625Z,16.88
2023-04-01T22:04:31.836Z,17.48
2023-04-01T22:07:03.465Z,16.40
2023-04-01T22:09:58.772Z,16.52
2023-04-01T22:12:35.002Z,17.08
2023-04-01T22:15:05.271Z,17.85
2023-04-01T22:17:47.691Z,17.25
2023-04-01T22:20:20.498Z,16.85
2023-04-01T22:23:34.110Z,17.17
2023-04-01T22:26:35.384Z,16.83
2023-04-01T22:29:08.989Z,16.75
2023-04-01T22:31:52.822Z,15.77
2023-04-01T22:34:44.397Z,16.40
2023-04-01T22:37:38.530Z,15.85
2023-04-01T22:40:43.489Z,16.20
2023-04-01T22:43:16.511Z,15.48
2023-04-01T22:45:58.129Z,16.88
2023-04-01T22:48:48.846Z,15.75
2023-04-01T22:52:09.578Z,15.45
2023-04-01T22:54:45.002Z,15.23
2023-04-01T22:57:14.770Z,15.57
2023-04-01T22:59:43.599Z,15.23
2023-04-01T23:02:23.109Z,14.95
2023-04-01T23:04:54.629Z,14.85
2023-04-01T23:07:50.668Z,14.68
2023-04-01T23:10:26.235Z,15.35
2023-04-01T23:12:53.811Z,13.27
2023-04-01T23:15:20.935Z,15.70
2023-04-01T23:18:23.544Z,16.00
2023-04-01T23:20:56.705Z,17.27
2023-04-01T23:23:30.846Z,14.63
2023-04-01T23:26:04.096Z,14.68
2023-04-01T23:28:33.908Z,14.60
2023-04-01T23:31:01.184Z,14.52
2023-04-01T23:33:31.444Z,14.95
2023-04-01T23:36:12.753Z,14.23
2023-04-01T23:38:42.751Z,14.93
2023-04-01T23:41:30.896Z,14.13
2023-04-01T23:44:06.661Z,14.18
2023-04-01T23:46:34.743Z,13.57
2023-04-01T23:49:02.292Z,13.35
2023-04-01T23:51:37.386Z,13.02
2023-04-01T23:54:25.577Z,13.35
2023-04-01T23:56:53.431Z,13.45
2023-04-01T23:59:24.415Z,13.05
